VIDP/DEL METAR and TAF weather

Enter ICAO airport designator
Station Type Date Time Source
VIDP METAR 2020/06/03 14:30 UTC NOAA

VIDP 031430Z 26005KT 3500 HZ FEW035 SCT100 31/18 Q1003 NOSIG


Station Type Date Time Source
VIDP Decoded METAR 2020/06/03 14:30 UTC NOAA

New Delhi / Palam, India (VIDP) 28-34N 077-07E 233M
Jun 03, 2020 - 10:30 AM EDT / 2020.06.03 1430 UTC
Wind: from the W (260 degrees) at 6 MPH (5 KT):0
Visibility: 2 mile(s):0
Sky conditions: partly cloudy
Weather: haze
Temperature: 87 F (31 C)
Dew Point: 64 F (18 C)
Relative Humidity: 45%
Pressure (altimeter): 29.62 in. Hg (1003 hPa)
ob: VIDP 031430Z 26005KT 3500 HZ FEW035 SCT100 31/18 Q1003 NOSIG
cycle: 14

Station Type Date Time Source
VIDP TAF 2020/06/03 12:49 UTC NOAA

TAF VIDP 031100Z 0312/0418 29008KT 3500 HZ SCT035 BKN090
TEMPO 0312/0315 FEW040CB
BECMG 0400/0402 23006KT 2000 HZ BR FEW100
BECMG 0405/0407 29008KT 4500 HZ FEW035 SCT100
TEMPO 0409/0415 FEW040CB
BECMG 0415/0417 18008KT 3500 HZ BLDU SCT035 BKN090

Example: see airport list